Nathaniel B. Palmer — WBP3210 — position and weather

sailwx.info

Track history (hours):
 
Tides and Currents Weather Stations Pressure Air Temp Water Temp Dewpoint Dewpoint Depression Visibility Wind Speed Wind Dir Waves Ship Positions

Oceanographic research ship Nathaniel B. Palmer (USA)

Contact: Ethan Norris, ethan.norris.contractor@usap.gov

Detailed information on ship capabilities available from University of Delaware's Ocean Information Center and ARCUS's ALIAS (Arctic Logistics Information and Support) project.

Owner: OFFSHORE SERVICE VESSELS, Cut Off, LA. More information available from US FCC via Universal Licensing System and Coast Guard Vessel Documentation Center.

Last reported at 2019-Jun-16 14:00 UTC. Time now 2019-Jun-16 15:00 UTC.
Position S 36°36' W 073°00'.

Type: Other ship. MMSI: 366610000.

Wind from 010 at 3 knots

Barometer 1020.4 mb
Air temperature 11.1 ° C
Water temperature 3.3 ° C

Date/timePositionNaut miles runAvg speedWind from/ knotsBaromVisibWave heightAir tempDewpointWater temp
2019-Jun-16 14:00S 36°36' W 073°00'0 0.0 010 / 31020.4 11.1 3.3
2019-Jun-16 13:00S 36°36' W 073°00'0 0.0 180 / 51020.0 10.5 3.3
2019-Jun-16 12:00S 36°36' W 073°00'0 0.0 170 / 51019.9 10.8 3.3
2019-Jun-16 11:00S 36°36' W 073°00'0 0.0 220 / 51020.0 10.1 3.3
2019-Jun-16 10:00S 36°36' W 073°00'0 0.0 210 / 51020.2 9.6 3.3
2019-Jun-16 09:00S 36°36' W 073°00'0 0.0 190 / 81020.7 9.6 3.3
2019-Jun-16 08:00S 36°36' W 073°00'0 0.0 210 / 41021.6 9.5 3.3
2019-Jun-16 07:00S 36°36' W 073°00'0 0.0 180 / 41021.6 9.6 3.3
2019-Jun-16 06:00S 36°36' W 073°00'0 0.0 180 / 41021.9 9.9 3.3
2019-Jun-16 05:00S 36°36' W 073°00'0 0.0 190 / 41022.0 9.6 3.3
2019-Jun-16 04:00S 36°36' W 073°00'0 0.0 160 / 101022.1 10.2 3.3
2019-Jun-16 03:00S 36°36' W 073°00'0 0.0 170 / 71022.2 10.3 3.3
2019-Jun-16 02:00S 36°36' W 073°00'0 0.0 180 / 51022.2 10.3 3.3
2019-Jun-16 01:00S 36°36' W 073°00'0 0.0 190 / 31022.3 10.2 3.3
2019-Jun-16 00:00S 36°36' W 073°00'0 0.0 210 / 21022.4 10.2 3.3
2019-Jun-15 23:00S 36°36' W 073°00'0 0.0 170 / 41022.3 10.3 3.3
2019-Jun-15 22:00S 36°36' W 073°00'0 0.0 160 / 51022.6 10.4 3.3
2019-Jun-15 21:00S 36°36' W 073°00'0 0.0 160 / 71022.7 10.5 3.3
2019-Jun-15 20:00S 36°36' W 073°00'0 0.0 150 / 91022.7 10.5 3.3
2019-Jun-15 19:00S 36°36' W 073°00'0 0.0 140 / 31022.8 10.4 3.3
2019-Jun-15 18:00S 36°36' W 073°00'0 0.0 040 / 41023.3 10.5 3.3
2019-Jun-15 17:00S 36°36' W 073°00'0 0.0 130 / 51023.7 9.6 3.3
2019-Jun-15 16:00S 36°36' W 073°00'0 0.0 170 / 91023.7 9.3 3.3
2019-Jun-15 15:00S 36°36' W 073°00'0 0.0 210 / 31023.8 8.3 3.3
2019-Jun-15 14:00S 36°36' W 073°00'0 0.0 200 / 31023.5 6.9 3.3
2019-Jun-15 13:00S 36°36' W 073°00'0 0.0 190 / 41022.8 7.4 3.3
2019-Jun-15 12:00S 36°36' W 073°00'0 0.0 200 / 31022.4 8.0 3.3
2019-Jun-15 11:00S 36°36' W 073°00'0 0.0 220 / 41021.9 8.6 3.3
2019-Jun-15 10:00S 36°36' W 073°00'0 0.0 220 / 41021.9 8.2 3.3
2019-Jun-15 09:00S 36°36' W 073°00'0 0.0 200 / 51021.9 8.0 3.3
2019-Jun-15 08:00S 36°36' W 073°00'0 0.0 210 / 41022.2 7.6 3.3
2019-Jun-15 07:00S 36°36' W 073°00'0 0.0 210 / 41022.6 7.7 3.3
2019-Jun-15 06:00S 36°36' W 073°00'0 0.0 190 / 51023.1 7.8 3.3
2019-Jun-15 05:00S 36°36' W 073°00'0 0.0 210 / 71023.1 7.9 3.3
2019-Jun-15 04:00S 36°36' W 073°00'0 0.0 210 / 61022.8 7.9 3.3
2019-Jun-15 03:00S 36°36' W 073°00'0 0.0 210 / 51022.8 7.8 3.3
2019-Jun-15 02:00S 36°36' W 073°00'0 0.0 180 / 61022.7 7.7 3.3
2019-Jun-15 01:00S 36°36' W 073°00'0 0.0 200 / 51022.7 8.2 3.3
2019-Jun-15 00:00S 36°36' W 073°00'0 0.0 160 / 71022.5 8.4 3.3
2019-Jun-14 23:00S 36°36' W 073°00'0 0.0 150 / 71022.1 8.2 3.3
2019-Jun-14 22:00S 36°36' W 073°00'0 0.0 150 / 101021.7 8.3 3.3
2019-Jun-14 21:00S 36°36' W 073°00'0 0.0 160 / 91020.9 8.8 3.3
2019-Jun-14 20:00S 36°36' W 073°00'0 0.0 150 / 81020.2 9.3 3.3
2019-Jun-14 19:00S 36°36' W 073°00'0 0.0 130 / 101019.7 9.6 3.3
2019-Jun-14 18:00S 36°36' W 073°00'0 0.0 140 / 101019.3 9.6 3.3
2019-Jun-14 17:00S 36°36' W 073°00'0 0.0 140 / 91019.7 9.5 3.3
2019-Jun-14 16:00S 36°36' W 073°00'0 0.0 140 / 91019.8 9.2 3.3
2019-Jun-14 15:00S 36°36' W 073°00'0 0.0 150 / 121019.4 8.7 3.3
2019-Jun-14 14:00S 36°36' W 073°00'0 0.0 120 / 71018.9 9.1 3.3
2019-Jun-14 13:00S 36°36' W 073°00'0 0.0 080 / 111018.5 9.3 3.3
2019-Jun-14 12:00S 36°36' W 073°00'0 0.0 080 / 121018.0 9.3 3.3
2019-Jun-14 11:00S 36°36' W 073°00'0 0.0 090 / 131017.6 9.3 3.3
2019-Jun-14 10:00S 36°36' W 073°00'0 0.0 080 / 121017.7 9.2 3.3
2019-Jun-14 09:00S 36°36' W 073°00'0 0.0 080 / 141018.1 9.1 3.3
2019-Jun-14 08:00S 36°36' W 073°00'0 0.0 090 / 131018.4 9.4 3.3
2019-Jun-14 07:00S 36°36' W 073°00'0 0.0 070 / 121019.0 9.1 3.3
2019-Jun-14 06:00S 36°36' W 073°00'0 0.0 060 / 91019.5 9.3 3.3
2019-Jun-14 05:00S 36°36' W 073°00'0 0.0 070 / 121019.6 9.7 3.3
2019-Jun-14 04:00S 36°36' W 073°00'0 0.0 050 / 111020.0 9.7 3.3
2019-Jun-14 03:00S 36°36' W 073°00'0 0.0 030 / 101020.2 10.0 3.3
2019-Jun-14 02:00S 36°36' W 073°00'0 0.0 030 / 151020.2 10.1 3.3
2019-Jun-14 01:00S 36°36' W 073°00'0 0.0 020 / 161020.5 10.1 3.3
2019-Jun-14 00:00S 36°36' W 073°00'0 0.0 030 / 131020.3 10.0 3.3
2019-Jun-13 23:00S 36°36' W 073°00'0 0.0 010 / 121019.9 9.7 3.3
2019-Jun-13 22:00S 36°36' W 073°00'0 0.0 1019.6 10.5 3.3
2019-Jun-13 21:00S 36°36' W 073°00'0 0.0 350 / 141019.5 11.1 3.3
2019-Jun-13 20:00S 36°36' W 073°00'0 0.0 1019.4 10.9 3.3
2019-Jun-13 19:00S 36°36' W 073°00'0 0.0 1019.4 11.4 3.3
2019-Jun-13 18:00S 36°36' W 073°00'0 0.0 010 / 111019.8 11.4 3.3
2019-Jun-13 17:00S 36°36' W 073°00'0 0.0 010 / 121020.0 11.3 3.3
2019-Jun-13 16:00S 36°36' W 073°00'6 6.0 020 / 81020.3 11.2 3.3
2019-Jun-13 15:00S 36°42' W 073°00'0 0.0 030 / 41020.2 11.1 3.3
2019-Jun-13 14:00S 36°42' W 073°00'0 0.0 040 / 61019.8 10.4 3.3
2019-Jun-13 13:00S 36°42' W 073°00'0 0.0 090 / 51019.2 9.7 3.3
2019-Jun-13 12:00S 36°42' W 073°00'0 0.0 150 / 21018.7 9.9 3.3
2019-Jun-13 11:00S 36°42' W 073°00'0 0.0 200 / 31018.2 10.1 3.3
2019-Jun-13 10:00S 36°42' W 073°00'0 0.0 310 / 51017.6 10.8 3.3
2019-Jun-13 09:00S 36°42' W 073°00'0 0.0 350 / 41017.7 10.7 3.3
2019-Jun-13 08:00S 36°42' W 073°00'0 0.0 300 / 61017.5 10.5 3.3
2019-Jun-13 07:00S 36°42' W 073°00'0 0.0 300 / 61016.9 10.3 3.3
2019-Jun-13 06:00S 36°42' W 073°00'0 0.0 260 / 81016.3 10.0 3.3
2019-Jun-13 05:00S 36°42' W 073°00'0 0.0 260 / 101015.9 10.6 3.3
2019-Jun-13 04:00S 36°42' W 073°00'0 0.0 260 / 131015.3 10.2 3.3
2019-Jun-13 03:00S 36°42' W 073°00'0 0.0 280 / 211013.8 10.3 3.3
2019-Jun-13 02:00S 36°42' W 073°00'0 0.0 280 / 191012.3 11.2 3.3
2019-Jun-13 01:00S 36°42' W 073°00'0 0.0 310 / 221010.5 12.1 3.3
2019-Jun-13 00:00S 36°42' W 073°00'0 0.0 330 / 231009.1 12.0 3.3
2019-Jun-12 23:00S 36°42' W 073°00'0 0.0 330 / 331005.5 11.9 3.3
2019-Jun-12 22:00S 36°42' W 073°00'0 0.0 030 / 241006.2 13.2 3.3
2019-Jun-12 21:00S 36°42' W 073°00'0 0.0 010 / 271007.3 13.4 3.3
2019-Jun-12 20:00S 36°42' W 073°00'0 0.0 010 / 351007.2 13.2 3.3
2019-Jun-12 19:00S 36°42' W 073°00'0 0.0 1007.2 12.6 3.3
2019-Jun-12 18:00S 36°42' W 073°00'0 0.0 350 / 201007.6 12.6 3.3
2019-Jun-12 17:00S 36°42' W 073°00'0 0.0 1008.0 12.9 3.3
2019-Jun-12 16:00S 36°42' W 073°00'0 0.0 010 / 321007.9 13.1 3.3
2019-Jun-12 15:00S 36°42' W 073°00'0 0.0 020 / 391007.1 12.7 3.3
2019-Jun-12 14:00S 36°42' W 073°00'0 0.0 030 / 391006.2 12.9 3.3
2019-Jun-12 13:00S 36°42' W 073°00'6 6.0 050 / 241006.8 12.2 3.3
2019-Jun-12 12:00S 36°36' W 073°00'0 0.0 060 / 161007.9 12.2 3.3
2019-Jun-12 11:00S 36°36' W 073°00'8 7.7 060 / 101008.4 11.4 3.3
2019-Jun-12 10:00S 36°30' W 073°06'5 4.8 030 / 291008.5 12.1 3.3
2019-Jun-12 09:00S 36°30' W 073°12'6 6.0 030 / 271009.2 12.1 3.3
2019-Jun-12 08:00S 36°36' W 073°12'5 4.8 040 / 251010.1 12.0 3.3
2019-Jun-12 07:00S 36°36' W 073°18'8 7.7 030 / 241010.9 12.0 3.3
2019-Jun-12 06:00S 36°42' W 073°24'8 7.7 020 / 171011.8 12.0 3.3
2019-Jun-12 05:00S 36°48' W 073°30'8 7.7 010 / 121012.5 12.3 3.3
2019-Jun-12 04:00S 36°54' W 073°36'5 4.8 1012.5 12.4 3.3
2019-Jun-12 03:00S 36°54' W 073°42'6 6.0 010 / 111012.5 12.3 3.3
2019-Jun-12 02:00S 37°00' W 073°42'8 7.7 050 / 91012.6 12.1 3.3
2019-Jun-12 01:00S 37°06' W 073°48'1212.0 350 / 41012.8 11.4 3.3
2019-Jun-12 00:00S 37°18' W 073°48'8 7.7 310 / 51012.4 11.1 3.3
2019-Jun-11 23:00S 37°24' W 073°54'6 6.0 320 / 71012.3 11.1 3.3
2019-Jun-11 22:00S 37°30' W 073°54'6 6.0 340 / 61011.8 11.1 3.3
2019-Jun-11 21:00S 37°36' W 073°54'8 7.7 310 / 61011.4 11.3 3.3
2019-Jun-11 20:00S 37°42' W 074°00'6 6.0 130 / 41011.2 10.5 3.3
2019-Jun-11 19:00S 37°48' W 074°00'6 6.0 180 / 81010.5 10.4 3.3
2019-Jun-11 18:00S 37°54' W 074°00'8 7.6 180 / 131010.5 10.2 3.3
2019-Jun-11 17:00S 38°00' W 074°06'6 6.0 180 / 171010.8 10.1 3.3
2019-Jun-11 16:00S 38°06' W 074°06'8 7.6 160 / 201011.3 10.0 3.3
2019-Jun-11 15:00S 38°12' W 074°12'6 6.0 160 / 221012.0 9.9 3.3
2019-Jun-11 14:00S 38°18' W 074°12'1212.0 160 / 221011.9 9.7 3.3
2019-Jun-11 13:00S 38°30' W 074°12'6 6.0 170 / 231011.9 9.7 3.3
2019-Jun-11 12:00S 38°36' W 074°12'6 6.0 160 / 181012.7 9.8 3.3
2019-Jun-11 11:00S 38°42' W 074°12'1212.0 160 / 161013.0 9.7 3.3
2019-Jun-11 10:00S 38°54' W 074°12'1312.9 170 / 151013.6 9.7 3.3
2019-Jun-11 09:00S 39°06' W 074°06'6 6.0 160 / 121014.7 9.6 3.3
2019-Jun-11 08:00S 39°12' W 074°06'1212.0 160 / 121015.6 9.6 3.3
2019-Jun-11 07:00S 39°24' W 074°06'1212.0 160 / 111016.5 9.6 3.3
2019-Jun-11 06:00S 39°36' W 074°06'6 6.0 160 / 111017.5 9.7 3.3
2019-Jun-11 05:00S 39°42' W 074°06'1212.0 170 / 121018.2 9.7 3.3
2019-Jun-11 04:00S 39°54' W 074°06'1212.0 170 / 101018.8 9.6 3.3
2019-Jun-11 03:00S 40°06' W 074°06'6 6.0 160 / 91019.2 9.6 3.3
2019-Jun-11 02:00S 40°12' W 074°06'1212.0 160 / 101019.7 9.6 3.3
2019-Jun-11 01:00S 40°24' W 074°06'1212.0 170 / 91020.2 9.6 3.3
2019-Jun-11 00:00S 40°36' W 074°06'6 6.0 160 / 91020.5 9.6 3.3
2019-Jun-10 23:00S 40°42' W 074°06'1212.0 170 / 91020.8 9.5 3.3
2019-Jun-10 22:00S 40°54' W 074°06'1312.8 180 / 71021.0 9.8 3.3
2019-Jun-10 21:00S 41°06' W 074°00'6 6.0 200 / 41021.2 9.9 3.3
2019-Jun-10 20:00S 41°12' W 074°00'1212.0 210 / 41021.4 10.0 3.3
2019-Jun-10 19:00S 41°24' W 074°00'1212.0 250 / 51021.7 9.5 3.3
2019-Jun-10 18:00S 41°36' W 074°00'1110.8 300 / 31022.0 9.9 3.3
2019-Jun-10 17:00S 41°42' W 073°48'9 9.0 350 / 41022.5 9.2 3.3
2019-Jun-10 16:00S 41°42' W 073°36'1110.8 350 / 51022.9 8.8 3.3
2019-Jun-10 15:00S 41°48' W 073°24'1312.8 320 / 61022.8 8.5 3.3
2019-Jun-10 14:00S 42°00' W 073°18'1212.0 280 / 61022.2 8.2 3.3
2019-Jun-10 13:00S 42°12' W 073°18'1312.8 290 / 71021.5 6.8 3.3
2019-Jun-10 12:00S 42°24' W 073°12'7 7.5 280 / 71021.0 7.7 3.3
2019-Jun-10 11:00S 42°30' W 073°06'1312.8 290 / 101020.2 7.8 3.3
2019-Jun-10 10:00S 42°42' W 073°12'1212.0 280 / 111019.8 8.0 3.3
2019-Jun-10 09:00S 42°54' W 073°12'1212.0 280 / 121019.2 7.8 3.3
2019-Jun-10 08:00S 43°06' W 073°12'1212.0 290 / 151018.7 7.8 3.3
2019-Jun-10 07:00S 43°18' W 073°12'7 7.4 290 / 161017.9 7.9 3.3
2019-Jun-10 06:00S 43°24' W 073°18'1212.0 260 / 171017.0 7.8 3.3
2019-Jun-10 05:00S 43°36' W 073°18'1212.0 250 / 161016.0 7.4 3.3
2019-Jun-10 04:00S 43°48' W 073°18'1212.0 270 / 171014.8 8.2 3.3
2019-Jun-10 03:00S 44°00' W 073°18'7 7.4 270 / 131013.9 7.6 3.3
2019-Jun-10 02:00S 44°06' W 073°24'1212.0 270 / 151012.4 7.3 3.3
2019-Jun-10 01:00S 44°18' W 073°24'1212.0 270 / 191011.1 7.5 3.3
2019-Jun-10 00:00S 44°30' W 073°24'1312.7 270 / 141010.1 7.8 3.3
2019-Jun-09 23:00S 44°42' W 073°30'1212.0 290 / 161009.2 7.6 3.3
2019-Jun-09 22:00S 44°54' W 073°30'7 7.4 280 / 131008.3 7.6 3.3
2019-Jun-09 21:00S 45°00' W 073°36'1212.0 300 / 131007.4 7.7 3.3
2019-Jun-09 20:00S 45°12' W 073°36'1312.7 280 / 131006.8 7.9 3.3
2019-Jun-09 19:00S 45°24' W 073°42'8 8.4 270 / 91006.6 8.1 3.3
2019-Jun-09 18:00S 45°24' W 073°54'1312.6 280 / 141006.4 7.9 3.3
2019-Jun-09 17:00S 45°24' W 074°12'7 7.3 300 / 161006.2 8.8 3.3
2019-Jun-09 16:00S 45°30' W 074°06'1312.7 350 / 61006.2 7.4 3.3
2019-Jun-09 15:00S 45°42' W 074°12'8 8.4 310 / 51005.9 6.7 3.3
2019-Jun-09 14:00S 45°42' W 074°24'1010.3 310 / 61005.1 7.0 3.3
2019-Jun-09 13:00S 45°48' W 074°36'8 8.4 310 / 91004.5 6.9 3.3
2019-Jun-09 12:00S 45°48' W 074°48'1312.5 250 / 91004.0 7.2 3.3
2019-Jun-09 11:00S 45°48' W 075°06'7 7.3 250 / 181003.3 8.6 3.3
2019-Jun-09 10:00S 45°54' W 075°12'1010.3 260 / 181002.5 9.3 3.3
2019-Jun-09 09:00S 46°00' W 075°24'1312.7 260 / 161001.7 9.2 3.3
2019-Jun-09 08:00S 46°12' W 075°30'7 7.3 260 / 181001.2 9.2 3.3
2019-Jun-09 07:00S 46°18' W 075°36'1312.7 260 / 181000.4 9.1 3.3
2019-Jun-09 06:00S 46°30' W 075°42'7 7.3 260 / 18999.8 8.9 3.3
2019-Jun-09 05:00S 46°36' W 075°48'1312.7 270 / 24999.2 8.7 3.3
2019-Jun-09 04:00S 46°48' W 075°42'6 6.0 280 / 29998.1 8.8 3.3
2019-Jun-09 03:00S 46°54' W 075°42'1010.2 280 / 29997.7 8.5 3.3
2019-Jun-09 02:00S 47°00' W 075°30'7 7.3 280 / 27997.3 8.5 3.3
2019-Jun-09 01:00S 47°06' W 075°24'1514.5 270 / 28996.7 8.4 3.3
2019-Jun-09 00:00S 47°18' W 075°12'1010.1 290 / 27996.2 8.5 3.3
2019-Jun-08 23:00S 47°24' W 075°00'7 7.2 280 / 26995.8 8.8 3.3
2019-Jun-08 22:00S 47°30' W 074°54'1414.5 280 / 28995.2 8.9 3.3
2019-Jun-08 21:00S 47°42' W 074°42'6 6.0 280 / 26994.7 8.5 3.3
2019-Jun-08 20:00S 47°48' W 074°42'1312.7 310 / 19994.1 8.1 3.3
2019-Jun-08 19:00S 48°00' W 074°36'7 7.2 340 / 19994.0 7.8 3.3
2019-Jun-08 18:00S 48°06' W 074°30'1212.0 340 / 12994.7 7.4 3.3
2019-Jun-08 17:00S 48°18' W 074°30'1312.6 350 / 20994.9 7.4 3.3
2019-Jun-08 16:00S 48°30' W 074°24'6 6.0 340 / 16995.0 8.0 3.3
2019-Jun-08 15:00S 48°36' W 074°24'1212.0 340 / 12994.9 8.0 3.3
2019-Jun-08 14:00S 48°48' W 074°24'1212.0 350 / 10994.6 7.9 3.3
2019-Jun-08 13:00S 49°00' W 074°24'7 7.2 320 / 7994.4 6.4 3.3
2019-Jun-08 12:00S 49°06' W 074°18'6 6.0 010 / 17993.9 6.3 3.3
2019-Jun-08 11:00S 49°12' W 074°18'6 6.0 360 / 22993.9 6.7 3.3
2019-Jun-08 10:00S 49°18' W 074°18'7 7.2 994.4 6.8 3.3
2019-Jun-08 09:00S 49°24' W 074°12'6 6.0 340 / 8995.9 7.6 3.3
2019-Jun-08 08:00S 49°30' W 074°12'1312.6 040 / 9997.1 7.4 3.3
2019-Jun-08 07:00S 49°42' W 074°18'6 6.0 360 / 16997.7 7.4 3.3
2019-Jun-08 06:00S 49°48' W 074°18'7 7.1 360 / 14998.4 6.2 3.3
2019-Jun-08 05:00S 49°54' W 074°24'7 7.1 360 / 14998.5 5.8 3.3
2019-Jun-08 04:00S 50°00' W 074°30'10 9.8 040 / 12998.2 5.7 3.3
2019-Jun-08 03:00S 50°06' W 074°42'7 7.1 020 / 14997.7 6.2 3.3
2019-Jun-08 02:00S 50°12' W 074°48'1212.0 360 / 18997.1 6.3 3.3
2019-Jun-08 01:00S 50°24' W 074°48'7 7.1 010 / 20996.4 6.4 3.3
2019-Jun-08 00:00S 50°30' W 074°42'1414.2 360 / 19996.1 6.7 3.3
2019-Jun-07 23:00S 50°42' W 074°30'10 9.7 350 / 16995.8 7.2 3.3
2019-Jun-07 22:00S 50°48' W 074°18'7 7.1 310 / 16995.6 7.7 3.3
2019-Jun-07 21:00S 50°54' W 074°12'1312.6 350 / 18995.5 7.4 3.3
2019-Jun-07 20:00S 51°06' W 074°06'6 6.0 350 / 20995.0 7.2 3.3
2019-Jun-07 19:00S 51°12' W 074°06'1312.6 350 / 20994.8 7.1 3.3
2019-Jun-07 18:00S 51°24' W 074°00'1312.6 994.7 7.4 3.3
2019-Jun-07 17:00S 51°36' W 073°54'7 7.1 350 / 19994.7 7.0 3.3
2019-Jun-07 16:00S 51°42' W 073°48'7 7.1 330 / 22994.8 7.1 3.3
2019-Jun-07 15:00S 51°48' W 073°42'1312.6 330 / 15994.8 7.2 3.3
2019-Jun-07 14:00S 52°00' W 073°36'6 6.0 310 / 14994.5 6.5 3.3
2019-Jun-07 13:00S 52°06' W 073°36'1212.0 340 / 17994.4 6.4 3.3
2019-Jun-07 12:00S 52°18' W 073°36'6 6.0 340 / 11994.4 6.8 3.3
2019-Jun-07 11:00S 52°24' W 073°36'1212.0 360 / 10994.3 6.4 3.3
2019-Jun-07 10:00S 52°36' W 073°36'9 9.4 020 / 13994.1 5.9 3.3
2019-Jun-07 09:00S 52°42' W 073°48'1212.0 340 / 15994.0 6.1 3.3
2019-Jun-07 08:00S 52°54' W 073°48'9 9.4 360 / 17993.9 5.5 3.3
2019-Jun-07 07:00S 53°00' W 073°36'9 9.4 350 / 13994.0 5.1 3.3
2019-Jun-07 06:00S 53°06' W 073°24'9 9.4 340 / 15994.1 5.5 3.3
2019-Jun-07 05:00S 53°12' W 073°12'9 9.4 310 / 13994.1 6.1 3.3
2019-Jun-07 04:00S 53°18' W 073°00'1212.3 280 / 11994.2 5.5 3.3
2019-Jun-07 03:00S 53°24' W 072°42'9 9.3 300 / 18993.7 5.4 3.3
2019-Jun-07 02:00S 53°30' W 072°30'7 7.1 310 / 22993.0 5.5 3.3
2019-Jun-07 01:00S 53°30' W 072°18'9 9.3 290 / 16992.7 5.9 3.3
2019-Jun-07 00:00S 53°36' W 072°06'1212.2 300 / 20991.9 5.9 3.3
2019-Jun-06 23:00S 53°42' W 071°48'1212.2 300 / 22991.3 6.0 3.3
2019-Jun-06 22:00S 53°48' W 071°30'1212.2 310 / 18990.9 5.6 3.3
2019-Jun-06 21:00S 53°54' W 071°12'9 9.3 290 / 28989.6 5.7 3.3
2019-Jun-06 20:00S 53°48' W 071°00'4310.7 270 / 16988.7 7.0 3.3
2019-Jun-06 16:00S 53°06' W 070°48'4 3.6 320 / 9988.5 6.6 3.3
2019-Jun-06 15:00S 53°06' W 070°54'0 0.0 330 / 10988.3 6.2 3.3
2019-Jun-06 14:00S 53°06' W 070°54'   360 / 9987.9 6.0 3.3
Track history (hours):
 
Tides and Currents Weather Stations Pressure Air Temp Water Temp Dewpoint Dewpoint Depression Visibility Wind Speed Wind Dir Waves Ship Positions

Oceanographic research ship Nathaniel B. Palmer (USA)

Contact: Ethan Norris, ethan.norris.contractor@usap.gov

Detailed information on ship capabilities available from University of Delaware's Ocean Information Center and ARCUS's ALIAS (Arctic Logistics Information and Support) project.

Owner: OFFSHORE SERVICE VESSELS, Cut Off, LA. More information available from US FCC via Universal Licensing System and Coast Guard Vessel Documentation Center.

Last reported at 2019-Jun-16 14:00 UTC. Time now 2019-Jun-16 15:00 UTC.
Position S 36°36' W 073°00'.

Type: Other ship. MMSI: 366610000.

Wind from 010 at 3 knots

Barometer 1020.4 mb
Air temperature 11.1 ° C
Water temperature 3.3 ° C

Date/timePositionNaut miles runAvg speedWind from/ knotsBaromVisibWave heightAir tempDewpointWater temp
2019-Jun-16 14:00S 36°36' W 073°00'0 0.0 010 / 31020.4 11.1 3.3
2019-Jun-16 13:00S 36°36' W 073°00'0 0.0 180 / 51020.0 10.5 3.3
2019-Jun-16 12:00S 36°36' W 073°00'0 0.0 170 / 51019.9 10.8 3.3
2019-Jun-16 11:00S 36°36' W 073°00'0 0.0 220 / 51020.0 10.1 3.3
2019-Jun-16 10:00S 36°36' W 073°00'0 0.0 210 / 51020.2 9.6 3.3
2019-Jun-16 09:00S 36°36' W 073°00'0 0.0 190 / 81020.7 9.6 3.3
2019-Jun-16 08:00S 36°36' W 073°00'0 0.0 210 / 41021.6 9.5 3.3
2019-Jun-16 07:00S 36°36' W 073°00'0 0.0 180 / 41021.6 9.6 3.3
2019-Jun-16 06:00S 36°36' W 073°00'0 0.0 180 / 41021.9 9.9 3.3
2019-Jun-16 05:00S 36°36' W 073°00'0 0.0 190 / 41022.0 9.6 3.3
2019-Jun-16 04:00S 36°36' W 073°00'0 0.0 160 / 101022.1 10.2 3.3
2019-Jun-16 03:00S 36°36' W 073°00'0 0.0 170 / 71022.2 10.3 3.3
2019-Jun-16 02:00S 36°36' W 073°00'0 0.0 180 / 51022.2 10.3 3.3
2019-Jun-16 01:00S 36°36' W 073°00'0 0.0 190 / 31022.3 10.2 3.3
2019-Jun-16 00:00S 36°36' W 073°00'0 0.0 210 / 21022.4 10.2 3.3
2019-Jun-15 23:00S 36°36' W 073°00'0 0.0 170 / 41022.3 10.3 3.3
2019-Jun-15 22:00S 36°36' W 073°00'0 0.0 160 / 51022.6 10.4 3.3
2019-Jun-15 21:00S 36°36' W 073°00'0 0.0 160 / 71022.7 10.5 3.3
2019-Jun-15 20:00S 36°36' W 073°00'0 0.0 150 / 91022.7 10.5 3.3
2019-Jun-15 19:00S 36°36' W 073°00'0 0.0 140 / 31022.8 10.4 3.3
2019-Jun-15 18:00S 36°36' W 073°00'0 0.0 040 / 41023.3 10.5 3.3
2019-Jun-15 17:00S 36°36' W 073°00'0 0.0 130 / 51023.7 9.6 3.3
2019-Jun-15 16:00S 36°36' W 073°00'0 0.0 170 / 91023.7 9.3 3.3
2019-Jun-15 15:00S 36°36' W 073°00'0 0.0 210 / 31023.8 8.3 3.3
2019-Jun-15 14:00S 36°36' W 073°00'0 0.0 200 / 31023.5 6.9 3.3
2019-Jun-15 13:00S 36°36' W 073°00'0 0.0 190 / 41022.8 7.4 3.3
2019-Jun-15 12:00S 36°36' W 073°00'0 0.0 200 / 31022.4 8.0 3.3
2019-Jun-15 11:00S 36°36' W 073°00'0 0.0 220 / 41021.9 8.6 3.3
2019-Jun-15 10:00S 36°36' W 073°00'0 0.0 220 / 41021.9 8.2 3.3
2019-Jun-15 09:00S 36°36' W 073°00'0 0.0 200 / 51021.9 8.0 3.3
2019-Jun-15 08:00S 36°36' W 073°00'0 0.0 210 / 41022.2 7.6 3.3
2019-Jun-15 07:00S 36°36' W 073°00'0 0.0 210 / 41022.6 7.7 3.3
2019-Jun-15 06:00S 36°36' W 073°00'0 0.0 190 / 51023.1 7.8 3.3
2019-Jun-15 05:00S 36°36' W 073°00'0 0.0 210 / 71023.1 7.9 3.3
2019-Jun-15 04:00S 36°36' W 073°00'0 0.0 210 / 61022.8 7.9 3.3
2019-Jun-15 03:00S 36°36' W 073°00'0 0.0 210 / 51022.8 7.8 3.3
2019-Jun-15 02:00S 36°36' W 073°00'0 0.0 180 / 61022.7 7.7 3.3
2019-Jun-15 01:00S 36°36' W 073°00'0 0.0 200 / 51022.7 8.2 3.3
2019-Jun-15 00:00S 36°36' W 073°00'0 0.0 160 / 71022.5 8.4 3.3
2019-Jun-14 23:00S 36°36' W 073°00'0 0.0 150 / 71022.1 8.2 3.3
2019-Jun-14 22:00S 36°36' W 073°00'0 0.0 150 / 101021.7 8.3 3.3
2019-Jun-14 21:00S 36°36' W 073°00'0 0.0 160 / 91020.9 8.8 3.3
2019-Jun-14 20:00S 36°36' W 073°00'0 0.0 150 / 81020.2 9.3 3.3
2019-Jun-14 19:00S 36°36' W 073°00'0 0.0 130 / 101019.7 9.6 3.3
2019-Jun-14 18:00S 36°36' W 073°00'0 0.0 140 / 101019.3 9.6 3.3
2019-Jun-14 17:00S 36°36' W 073°00'0 0.0 140 / 91019.7 9.5 3.3
2019-Jun-14 16:00S 36°36' W 073°00'0 0.0 140 / 91019.8 9.2 3.3
2019-Jun-14 15:00S 36°36' W 073°00'0 0.0 150 / 121019.4 8.7 3.3
2019-Jun-14 14:00S 36°36' W 073°00'0 0.0 120 / 71018.9 9.1 3.3
2019-Jun-14 13:00S 36°36' W 073°00'0 0.0 080 / 111018.5 9.3 3.3
2019-Jun-14 12:00S 36°36' W 073°00'0 0.0 080 / 121018.0 9.3 3.3
2019-Jun-14 11:00S 36°36' W 073°00'0 0.0 090 / 131017.6 9.3 3.3
2019-Jun-14 10:00S 36°36' W 073°00'0 0.0 080 / 121017.7 9.2 3.3
2019-Jun-14 09:00S 36°36' W 073°00'0 0.0 080 / 141018.1 9.1 3.3
2019-Jun-14 08:00S 36°36' W 073°00'0 0.0 090 / 131018.4 9.4 3.3
2019-Jun-14 07:00S 36°36' W 073°00'0 0.0 070 / 121019.0 9.1 3.3
2019-Jun-14 06:00S 36°36' W 073°00'0 0.0 060 / 91019.5 9.3 3.3
2019-Jun-14 05:00S 36°36' W 073°00'0 0.0 070 / 121019.6 9.7 3.3
2019-Jun-14 04:00S 36°36' W 073°00'0 0.0 050 / 111020.0 9.7 3.3
2019-Jun-14 03:00S 36°36' W 073°00'0 0.0 030 / 101020.2 10.0 3.3
2019-Jun-14 02:00S 36°36' W 073°00'0 0.0 030 / 151020.2 10.1 3.3
2019-Jun-14 01:00S 36°36' W 073°00'0 0.0 020 / 161020.5 10.1 3.3
2019-Jun-14 00:00S 36°36' W 073°00'0 0.0 030 / 131020.3 10.0 3.3
2019-Jun-13 23:00S 36°36' W 073°00'0 0.0 010 / 121019.9 9.7 3.3
2019-Jun-13 22:00S 36°36' W 073°00'0 0.0 1019.6 10.5 3.3
2019-Jun-13 21:00S 36°36' W 073°00'0 0.0 350 / 141019.5 11.1 3.3
2019-Jun-13 20:00S 36°36' W 073°00'0 0.0 1019.4 10.9 3.3
2019-Jun-13 19:00S 36°36' W 073°00'0 0.0 1019.4 11.4 3.3
2019-Jun-13 18:00S 36°36' W 073°00'0 0.0 010 / 111019.8 11.4 3.3
2019-Jun-13 17:00S 36°36' W 073°00'0 0.0 010 / 121020.0 11.3 3.3
2019-Jun-13 16:00S 36°36' W 073°00'6 6.0 020 / 81020.3 11.2 3.3
2019-Jun-13 15:00S 36°42' W 073°00'0 0.0 030 / 41020.2 11.1 3.3
2019-Jun-13 14:00S 36°42' W 073°00'0 0.0 040 / 61019.8 10.4 3.3
2019-Jun-13 13:00S 36°42' W 073°00'0 0.0 090 / 51019.2 9.7 3.3
2019-Jun-13 12:00S 36°42' W 073°00'0 0.0 150 / 21018.7 9.9 3.3
2019-Jun-13 11:00S 36°42' W 073°00'0 0.0 200 / 31018.2 10.1 3.3
2019-Jun-13 10:00S 36°42' W 073°00'0 0.0 310 / 51017.6 10.8 3.3
2019-Jun-13 09:00S 36°42' W 073°00'0 0.0 350 / 41017.7 10.7 3.3
2019-Jun-13 08:00S 36°42' W 073°00'0 0.0 300 / 61017.5 10.5 3.3
2019-Jun-13 07:00S 36°42' W 073°00'0 0.0 300 / 61016.9 10.3 3.3
2019-Jun-13 06:00S 36°42' W 073°00'0 0.0 260 / 81016.3 10.0 3.3
2019-Jun-13 05:00S 36°42' W 073°00'0 0.0 260 / 101015.9 10.6 3.3
2019-Jun-13 04:00S 36°42' W 073°00'0 0.0 260 / 131015.3 10.2 3.3
2019-Jun-13 03:00S 36°42' W 073°00'0 0.0 280 / 211013.8 10.3 3.3
2019-Jun-13 02:00S 36°42' W 073°00'0 0.0 280 / 191012.3 11.2 3.3
2019-Jun-13 01:00S 36°42' W 073°00'0 0.0 310 / 221010.5 12.1 3.3
2019-Jun-13 00:00S 36°42' W 073°00'0 0.0 330 / 231009.1 12.0 3.3
2019-Jun-12 23:00S 36°42' W 073°00'0 0.0 330 / 331005.5 11.9 3.3
2019-Jun-12 22:00S 36°42' W 073°00'0 0.0 030 / 241006.2 13.2 3.3
2019-Jun-12 21:00S 36°42' W 073°00'0 0.0 010 / 271007.3 13.4 3.3
2019-Jun-12 20:00S 36°42' W 073°00'0 0.0 010 / 351007.2 13.2 3.3
2019-Jun-12 19:00S 36°42' W 073°00'0 0.0 1007.2 12.6 3.3
2019-Jun-12 18:00S 36°42' W 073°00'0 0.0 350 / 201007.6 12.6 3.3
2019-Jun-12 17:00S 36°42' W 073°00'0 0.0 1008.0 12.9 3.3
2019-Jun-12 16:00S 36°42' W 073°00'0 0.0 010 / 321007.9 13.1 3.3
2019-Jun-12 15:00S 36°42' W 073°00'0 0.0 020 / 391007.1 12.7 3.3
2019-Jun-12 14:00S 36°42' W 073°00'0 0.0 030 / 391006.2 12.9 3.3
2019-Jun-12 13:00S 36°42' W 073°00'6 6.0 050 / 241006.8 12.2 3.3
2019-Jun-12 12:00S 36°36' W 073°00'0 0.0 060 / 161007.9 12.2 3.3
2019-Jun-12 11:00S 36°36' W 073°00'8 7.7 060 / 101008.4 11.4 3.3
2019-Jun-12 10:00S 36°30' W 073°06'5 4.8 030 / 291008.5 12.1 3.3
2019-Jun-12 09:00S 36°30' W 073°12'6 6.0 030 / 271009.2 12.1 3.3
2019-Jun-12 08:00S 36°36' W 073°12'5 4.8 040 / 251010.1 12.0 3.3
2019-Jun-12 07:00S 36°36' W 073°18'8 7.7 030 / 241010.9 12.0 3.3
2019-Jun-12 06:00S 36°42' W 073°24'8 7.7 020 / 171011.8 12.0 3.3
2019-Jun-12 05:00S 36°48' W 073°30'8 7.7 010 / 121012.5 12.3 3.3
2019-Jun-12 04:00S 36°54' W 073°36'5 4.8 1012.5 12.4 3.3
2019-Jun-12 03:00S 36°54' W 073°42'6 6.0 010 / 111012.5 12.3 3.3
2019-Jun-12 02:00S 37°00' W 073°42'8 7.7 050 / 91012.6 12.1 3.3
2019-Jun-12 01:00S 37°06' W 073°48'1212.0 350 / 41012.8 11.4 3.3
2019-Jun-12 00:00S 37°18' W 073°48'8 7.7 310 / 51012.4 11.1 3.3
2019-Jun-11 23:00S 37°24' W 073°54'6 6.0 320 / 71012.3 11.1 3.3
2019-Jun-11 22:00S 37°30' W 073°54'6 6.0 340 / 61011.8 11.1 3.3
2019-Jun-11 21:00S 37°36' W 073°54'8 7.7 310 / 61011.4 11.3 3.3
2019-Jun-11 20:00S 37°42' W 074°00'6 6.0 130 / 41011.2 10.5 3.3
2019-Jun-11 19:00S 37°48' W 074°00'6 6.0 180 / 81010.5 10.4 3.3
2019-Jun-11 18:00S 37°54' W 074°00'8 7.6 180 / 131010.5 10.2 3.3
2019-Jun-11 17:00S 38°00' W 074°06'6 6.0 180 / 171010.8 10.1 3.3
2019-Jun-11 16:00S 38°06' W 074°06'8 7.6 160 / 201011.3 10.0 3.3
2019-Jun-11 15:00S 38°12' W 074°12'6 6.0 160 / 221012.0 9.9 3.3
2019-Jun-11 14:00S 38°18' W 074°12'1212.0 160 / 221011.9 9.7 3.3
2019-Jun-11 13:00S 38°30' W 074°12'6 6.0 170 / 231011.9 9.7 3.3
2019-Jun-11 12:00S 38°36' W 074°12'6 6.0 160 / 181012.7 9.8 3.3
2019-Jun-11 11:00S 38°42' W 074°12'1212.0 160 / 161013.0 9.7 3.3
2019-Jun-11 10:00S 38°54' W 074°12'1312.9 170 / 151013.6 9.7 3.3
2019-Jun-11 09:00S 39°06' W 074°06'6 6.0 160 / 121014.7 9.6 3.3
2019-Jun-11 08:00S 39°12' W 074°06'1212.0 160 / 121015.6 9.6 3.3
2019-Jun-11 07:00S 39°24' W 074°06'1212.0 160 / 111016.5 9.6 3.3
2019-Jun-11 06:00S 39°36' W 074°06'6 6.0 160 / 111017.5 9.7 3.3
2019-Jun-11 05:00S 39°42' W 074°06'1212.0 170 / 121018.2 9.7 3.3
2019-Jun-11 04:00S 39°54' W 074°06'1212.0 170 / 101018.8 9.6 3.3
2019-Jun-11 03:00S 40°06' W 074°06'6 6.0 160 / 91019.2 9.6 3.3
2019-Jun-11 02:00S 40°12' W 074°06'1212.0 160 / 101019.7 9.6 3.3
2019-Jun-11 01:00S 40°24' W 074°06'1212.0 170 / 91020.2 9.6 3.3
2019-Jun-11 00:00S 40°36' W 074°06'6 6.0 160 / 91020.5 9.6 3.3
2019-Jun-10 23:00S 40°42' W 074°06'1212.0 170 / 91020.8 9.5 3.3
2019-Jun-10 22:00S 40°54' W 074°06'1312.8 180 / 71021.0 9.8 3.3
2019-Jun-10 21:00S 41°06' W 074°00'6 6.0 200 / 41021.2 9.9 3.3
2019-Jun-10 20:00S 41°12' W 074°00'1212.0 210 / 41021.4 10.0 3.3
2019-Jun-10 19:00S 41°24' W 074°00'1212.0 250 / 51021.7 9.5 3.3
2019-Jun-10 18:00S 41°36' W 074°00'1110.8 300 / 31022.0 9.9 3.3
2019-Jun-10 17:00S 41°42' W 073°48'9 9.0 350 / 41022.5 9.2 3.3
2019-Jun-10 16:00S 41°42' W 073°36'1110.8 350 / 51022.9 8.8 3.3
2019-Jun-10 15:00S 41°48' W 073°24'1312.8 320 / 61022.8 8.5 3.3
2019-Jun-10 14:00S 42°00' W 073°18'1212.0 280 / 61022.2 8.2 3.3
2019-Jun-10 13:00S 42°12' W 073°18'1312.8 290 / 71021.5 6.8 3.3
2019-Jun-10 12:00S 42°24' W 073°12'7 7.5 280 / 71021.0 7.7 3.3
2019-Jun-10 11:00S 42°30' W 073°06'1312.8 290 / 101020.2 7.8 3.3
2019-Jun-10 10:00S 42°42' W 073°12'1212.0 280 / 111019.8 8.0 3.3
2019-Jun-10 09:00S 42°54' W 073°12'1212.0 280 / 121019.2 7.8 3.3
2019-Jun-10 08:00S 43°06' W 073°12'1212.0 290 / 151018.7 7.8 3.3
2019-Jun-10 07:00S 43°18' W 073°12'7 7.4 290 / 161017.9 7.9 3.3
2019-Jun-10 06:00S 43°24' W 073°18'1212.0 260 / 171017.0 7.8 3.3
2019-Jun-10 05:00S 43°36' W 073°18'1212.0 250 / 161016.0 7.4 3.3
2019-Jun-10 04:00S 43°48' W 073°18'1212.0 270 / 171014.8 8.2 3.3
2019-Jun-10 03:00S 44°00' W 073°18'7 7.4 270 / 131013.9 7.6 3.3
2019-Jun-10 02:00S 44°06' W 073°24'1212.0 270 / 151012.4 7.3 3.3
2019-Jun-10 01:00S 44°18' W 073°24'1212.0 270 / 191011.1 7.5 3.3
2019-Jun-10 00:00S 44°30' W 073°24'1312.7 270 / 141010.1 7.8 3.3
2019-Jun-09 23:00S 44°42' W 073°30'1212.0 290 / 161009.2 7.6 3.3
2019-Jun-09 22:00S 44°54' W 073°30'7 7.4 280 / 131008.3 7.6 3.3
2019-Jun-09 21:00S 45°00' W 073°36'1212.0 300 / 131007.4 7.7 3.3
2019-Jun-09 20:00S 45°12' W 073°36'1312.7 280 / 131006.8 7.9 3.3
2019-Jun-09 19:00S 45°24' W 073°42'8 8.4 270 / 91006.6 8.1 3.3
2019-Jun-09 18:00S 45°24' W 073°54'1312.6 280 / 141006.4 7.9 3.3
2019-Jun-09 17:00S 45°24' W 074°12'7 7.3 300 / 161006.2 8.8 3.3
2019-Jun-09 16:00S 45°30' W 074°06'1312.7 350 / 61006.2 7.4 3.3
2019-Jun-09 15:00S 45°42' W 074°12'8 8.4 310 / 51005.9 6.7 3.3
2019-Jun-09 14:00S 45°42' W 074°24'1010.3 310 / 61005.1 7.0 3.3
2019-Jun-09 13:00S 45°48' W 074°36'8 8.4 310 / 91004.5 6.9 3.3
2019-Jun-09 12:00S 45°48' W 074°48'1312.5 250 / 91004.0 7.2 3.3
2019-Jun-09 11:00S 45°48' W 075°06'7 7.3 250 / 181003.3 8.6 3.3
2019-Jun-09 10:00S 45°54' W 075°12'1010.3 260 / 181002.5 9.3 3.3
2019-Jun-09 09:00S 46°00' W 075°24'1312.7 260 / 161001.7 9.2 3.3
2019-Jun-09 08:00S 46°12' W 075°30'7 7.3 260 / 181001.2 9.2 3.3
2019-Jun-09 07:00S 46°18' W 075°36'1312.7 260 / 181000.4 9.1 3.3
2019-Jun-09 06:00S 46°30' W 075°42'7 7.3 260 / 18999.8 8.9 3.3
2019-Jun-09 05:00S 46°36' W 075°48'1312.7 270 / 24999.2 8.7 3.3
2019-Jun-09 04:00S 46°48' W 075°42'6 6.0 280 / 29998.1 8.8 3.3
2019-Jun-09 03:00S 46°54' W 075°42'1010.2 280 / 29997.7 8.5 3.3
2019-Jun-09 02:00S 47°00' W 075°30'7 7.3 280 / 27997.3 8.5 3.3
2019-Jun-09 01:00S 47°06' W 075°24'1514.5 270 / 28996.7 8.4 3.3
2019-Jun-09 00:00S 47°18' W 075°12'1010.1 290 / 27996.2 8.5 3.3
2019-Jun-08 23:00S 47°24' W 075°00'7 7.2 280 / 26995.8 8.8 3.3
2019-Jun-08 22:00S 47°30' W 074°54'1414.5 280 / 28995.2 8.9 3.3
2019-Jun-08 21:00S 47°42' W 074°42'6 6.0 280 / 26994.7 8.5 3.3
2019-Jun-08 20:00S 47°48' W 074°42'1312.7 310 / 19994.1 8.1 3.3
2019-Jun-08 19:00S 48°00' W 074°36'7 7.2 340 / 19994.0 7.8 3.3
2019-Jun-08 18:00S 48°06' W 074°30'1212.0 340 / 12994.7 7.4 3.3
2019-Jun-08 17:00S 48°18' W 074°30'1312.6 350 / 20994.9 7.4 3.3
2019-Jun-08 16:00S 48°30' W 074°24'6 6.0 340 / 16995.0 8.0 3.3
2019-Jun-08 15:00S 48°36' W 074°24'1212.0 340 / 12994.9 8.0 3.3
2019-Jun-08 14:00S 48°48' W 074°24'1212.0 350 / 10994.6 7.9 3.3
2019-Jun-08 13:00S 49°00' W 074°24'7 7.2 320 / 7994.4 6.4 3.3
2019-Jun-08 12:00S 49°06' W 074°18'6 6.0 010 / 17993.9 6.3 3.3
2019-Jun-08 11:00S 49°12' W 074°18'6 6.0 360 / 22993.9 6.7 3.3
2019-Jun-08 10:00S 49°18' W 074°18'7 7.2 994.4 6.8 3.3
2019-Jun-08 09:00S 49°24' W 074°12'6 6.0 340 / 8995.9 7.6 3.3
2019-Jun-08 08:00S 49°30' W 074°12'1312.6 040 / 9997.1 7.4 3.3
2019-Jun-08 07:00S 49°42' W 074°18'6 6.0 360 / 16997.7 7.4 3.3
2019-Jun-08 06:00S 49°48' W 074°18'7 7.1 360 / 14998.4 6.2 3.3
2019-Jun-08 05:00S 49°54' W 074°24'7 7.1 360 / 14998.5 5.8 3.3
2019-Jun-08 04:00S 50°00' W 074°30'10 9.8 040 / 12998.2 5.7 3.3
2019-Jun-08 03:00S 50°06' W 074°42'7 7.1 020 / 14997.7 6.2 3.3
2019-Jun-08 02:00S 50°12' W 074°48'1212.0 360 / 18997.1 6.3 3.3
2019-Jun-08 01:00S 50°24' W 074°48'7 7.1 010 / 20996.4 6.4 3.3
2019-Jun-08 00:00S 50°30' W 074°42'1414.2 360 / 19996.1 6.7 3.3
2019-Jun-07 23:00S 50°42' W 074°30'10 9.7 350 / 16995.8 7.2 3.3
2019-Jun-07 22:00S 50°48' W 074°18'7 7.1 310 / 16995.6 7.7 3.3
2019-Jun-07 21:00S 50°54' W 074°12'1312.6 350 / 18995.5 7.4 3.3
2019-Jun-07 20:00S 51°06' W 074°06'6 6.0 350 / 20995.0 7.2 3.3
2019-Jun-07 19:00S 51°12' W 074°06'1312.6 350 / 20994.8 7.1 3.3
2019-Jun-07 18:00S 51°24' W 074°00'1312.6 994.7 7.4 3.3
2019-Jun-07 17:00S 51°36' W 073°54'7 7.1 350 / 19994.7 7.0 3.3
2019-Jun-07 16:00S 51°42' W 073°48'7 7.1 330 / 22994.8 7.1 3.3
2019-Jun-07 15:00S 51°48' W 073°42'1312.6 330 / 15994.8 7.2 3.3
2019-Jun-07 14:00S 52°00' W 073°36'6 6.0 310 / 14994.5 6.5 3.3
2019-Jun-07 13:00S 52°06' W 073°36'1212.0 340 / 17994.4 6.4 3.3
2019-Jun-07 12:00S 52°18' W 073°36'6 6.0 340 / 11994.4 6.8 3.3
2019-Jun-07 11:00S 52°24' W 073°36'1212.0 360 / 10994.3 6.4 3.3
2019-Jun-07 10:00S 52°36' W 073°36'9 9.4 020 / 13994.1 5.9 3.3
2019-Jun-07 09:00S 52°42' W 073°48'1212.0 340 / 15994.0 6.1 3.3
2019-Jun-07 08:00S 52°54' W 073°48'9 9.4 360 / 17993.9 5.5 3.3
2019-Jun-07 07:00S 53°00' W 073°36'9 9.4 350 / 13994.0 5.1 3.3
2019-Jun-07 06:00S 53°06' W 073°24'9 9.4 340 / 15994.1 5.5 3.3
2019-Jun-07 05:00S 53°12' W 073°12'9 9.4 310 / 13994.1 6.1 3.3
2019-Jun-07 04:00S 53°18' W 073°00'1212.3 280 / 11994.2 5.5 3.3
2019-Jun-07 03:00S 53°24' W 072°42'9 9.3 300 / 18993.7 5.4 3.3
2019-Jun-07 02:00S 53°30' W 072°30'7 7.1 310 / 22993.0 5.5 3.3
2019-Jun-07 01:00S 53°30' W 072°18'9 9.3 290 / 16992.7 5.9 3.3
2019-Jun-07 00:00S 53°36' W 072°06'1212.2 300 / 20991.9 5.9 3.3
2019-Jun-06 23:00S 53°42' W 071°48'1212.2 300 / 22991.3 6.0 3.3
2019-Jun-06 22:00S 53°48' W 071°30'1212.2 310 / 18990.9 5.6 3.3
2019-Jun-06 21:00S 53°54' W 071°12'9 9.3 290 / 28989.6 5.7 3.3
2019-Jun-06 20:00S 53°48' W 071°00'4310.7 270 / 16988.7 7.0 3.3
2019-Jun-06 16:00S 53°06' W 070°48'4 3.6 320 / 9988.5 6.6 3.3
2019-Jun-06 15:00S 53°06' W 070°54'0 0.0 330 / 10988.3 6.2 3.3
2019-Jun-06 14:00S 53°06' W 070°54'   360 / 9987.9 6.0 3.3

Dump ship's entire track history